createdAt,value
2017-02-08T23:08:17.994Z,40.78
2017-02-08T23:09:27.877Z,41.35
2017-02-08T23:10:37.744Z,41.53
2017-02-08T23:11:47.269Z,40.18
2017-02-08T23:12:56.795Z,40.39
2017-02-08T23:14:06.709Z,40.2
2017-02-08T23:15:16.234Z,40.3
2017-02-08T23:16:27.115Z,40.01
2017-02-08T23:17:36.614Z,40.01
2017-02-08T23:18:46.677Z,40.39
2017-02-08T23:19:56.204Z,40.3
2017-02-08T23:21:05.703Z,40.3
2017-02-08T23:22:14.802Z,40.01
2017-02-08T23:23:25.074Z,40.3
2017-02-08T23:24:34.560Z,40.11
2017-02-08T23:25:45.222Z,40.3
2017-02-08T23:26:55.194Z,40.11
2017-02-08T23:28:05.105Z,40.11
2017-02-08T23:29:15.021Z,40.01
2017-02-08T23:30:24.904Z,40.3
2017-02-08T23:31:34.778Z,39.99
2017-02-08T23:32:45.046Z,40.2
2017-02-08T23:33:55.270Z,40.2
2017-02-08T23:35:05.525Z,40.39
2017-02-08T23:36:15.428Z,40.28
2017-02-08T23:37:24.960Z,41.26
2017-02-08T23:38:34.842Z,41.35
2017-02-08T23:39:45.477Z,40.68
2017-02-08T23:40:55.367Z,41.35
2017-02-08T23:42:04.852Z,41.83
2017-02-08T23:43:14.786Z,42.39
2017-02-08T23:44:24.667Z,42.2
2017-02-08T23:45:34.120Z,42.39
2017-02-08T23:46:43.197Z,42.39
2017-02-08T23:47:53.448Z,42
2017-02-08T23:49:02.973Z,42.1
2017-02-08T23:50:12.085Z,42.39
2017-02-08T23:51:22.317Z,42.2
2017-02-08T23:52:31.826Z,42.39
2017-02-08T23:53:41.711Z,42.3
2017-02-08T23:54:51.185Z,42.3
2017-02-08T23:56:01.102Z,42.3
2017-02-08T23:57:10.987Z,42.39
2017-02-08T23:58:20.084Z,42.2
2017-02-08T23:59:30.353Z,42.39
